Knotts Island, NC (27950)

8:57 PM EST on December 08, 2016 (GMT -0500)
Stillwater Landing | | Change Station

Elev 20 ft 36.52 °N, 75.92 °W | Updated 49 seconds ago

Partly Cloudy
Partly Cloudy
42.8 °F
Feels Like 43 °F
N
0.0
Wind Variable Wind from NW
Gusts 6.0 mph

Today
High -- | Low -- °F
--% Chance of Precip.
Yesterday
High -- | Low -- °F
Precip. -- in
Pressure 30.14 in
Visibility 10.0 miles
Clouds Clear
Windchill 43 °F
Dew Point 34 °F
Humidity 72%
Rainfall 0.00 in
Snow Depth Not available.
7:03 AM 4:48 PM
Waxing Gibbous, 69% visible
METAR KONX 090150Z AUTO 29005KT 10SM CLR 07/M02 A3014 RMK AO2 T00681020
Pressure 30.14 in
Visibility 10.0 miles
Clouds Clear
Windchill 43 °F
Dew Point 34 °F
Humidity 72%
Rainfall 0.00 in
Snow Depth Not available.
7:03 AM 4:48 PM
Waxing Gibbous, 69% visible
METAR KONX 090150Z AUTO 29005KT 10SM CLR 07/M02 A3014 RMK AO2 T00681020

10-Day Weather Forecast

Almanac

Astronomy

Dec. 08, 2016 Rise Set
Actual Time
Civil Twilight
Nautical Twilight
Astronomical Twilight
Moon
Length of Visible Light
Length of Day
Tomorrow will be .
, % of the Moon is Illuminated

Today's Extremes

State Highs State Lows

Community

WunderPhotos

Upload Photos

1,956,351 photos uploaded!

WunderBlog® & News

Nearby

Air Quality

  Air Quality AQ Index Pollutant
Not available.

Snow Depth

Station Depth Elevation

Earthquake Activity

City Distance Mag. Time & Date
Minimum magnitude displayed is 2.5.

Coastal Water Temperatures

Place Temperature

Stations

Nearby Weather Stations

Station Location Temp. Windchill Dew Point Humidity Wind Precip. Elev Updated Type
                   

Watches & Warnings

There are currently no watches in effect.